Time;durP1;ratioP1;P1;durP2;ratioP2;P2;SDS_P1;SDS_P2;PMS_P1;PMS_P2;Temp;Humidity;BMP_temperature;BMP_pressure;BME280_temperature;BME280_humidity;BME280_pressure;Samples;Min_cycle;Max_cycle;Signal;HPM_P1;HPM_P2
2023/09/21 00:00:47;;;;;;;11.02;5.78;;;;;;;;;;10272678;28;20435;-77
2023/09/21 00:05:54;;;;;;;9.50;5.28;;;;;;;;;;10270893;28;20528;-78
2023/09/21 00:10:58;;;;;;;9.93;5.32;;;;;;;;;;10270257;28;21770;-75
2023/09/21 00:16:00;;;;;;;9.07;5.38;;;;;;;;;;10272062;28;20910;-75
2023/09/21 00:21:06;;;;;;;9.48;5.13;;;;;;;;;;10264650;28;20449;-76
2023/09/21 00:26:09;;;;;;;9.10;5.30;;;;;;;;;;10267413;28;20501;-76
2023/09/21 00:31:13;;;;;;;9.93;5.57;;;;;;;;;;10271326;28;20422;-77
2023/09/21 00:36:17;;;;;;;11.02;5.88;;;;;;;;;;10269859;28;20822;-76
2023/09/21 00:41:20;;;;;;;9.53;5.60;;;;;;;;;;10264478;28;20496;-75
2023/09/21 00:46:26;;;;;;;9.13;5.38;;;;;;;;;;10252470;28;20501;-75
2023/09/21 00:51:32;;;;;;;9.63;5.40;;;;;;;;;;10268124;28;20494;-77
2023/09/21 00:56:37;;;;;;;8.20;5.13;;;;;;;;;;10271817;28;20489;-75
2023/09/21 01:01:39;;;;;;;10.35;5.40;;;;;;;;;;10265619;28;20420;-74
2023/09/21 01:06:47;;;;;;;11.63;5.65;;;;;;;;;;10274331;28;20431;-75
2023/09/21 01:11:50;;;;;;;9.52;5.45;;;;;;;;;;10264039;28;20526;-75
2023/09/21 01:16:54;;;;;;;7.63;4.57;;;;;;;;;;10262038;28;20483;-75
2023/09/21 01:22:02;;;;;;;6.95;4.13;;;;;;;;;;10253903;28;20498;-75
2023/09/21 01:27:07;;;;;;;6.50;3.80;;;;;;;;;;10270462;28;20932;-75
2023/09/21 01:32:10;;;;;;;8.20;4.25;;;;;;;;;;10270909;28;21045;-74
2023/09/21 01:37:14;;;;;;;6.55;4.22;;;;;;;;;;10266040;28;20992;-74
2023/09/21 01:42:19;;;;;;;7.43;3.83;;;;;;;;;;10263988;28;20961;-75
2023/09/21 01:47:22;;;;;;;5.25;3.80;;;;;;;;;;10266106;28;20512;-75
2023/09/21 01:52:27;;;;;;;6.27;3.97;;;;;;;;;;10270190;28;20475;-75
2023/09/21 01:57:32;;;;;;;4.78;3.40;;;;;;;;;;10268300;28;20492;-75
2023/09/21 02:02:34;;;;;;;5.20;3.53;;;;;;;;;;10266626;28;21071;-74
2023/09/21 02:07:37;;;;;;;5.67;3.50;;;;;;;;;;10267327;28;20480;-75
2023/09/21 02:12:50;;;;;;;6.20;3.53;;;;;;;;;;10263609;28;20994;-74
2023/09/21 02:17:55;;;;;;;5.90;3.40;;;;;;;;;;10248352;28;20460;-77
2023/09/21 02:23:01;;;;;;;6.43;3.47;;;;;;;;;;10270116;28;20944;-77
2023/09/21 02:28:09;;;;;;;6.60;3.60;;;;;;;;;;10261704;28;20496;-76
2023/09/21 02:33:12;;;;;;;6.93;3.33;;;;;;;;;;10273087;28;20496;-77
2023/09/21 02:38:17;;;;;;;4.97;3.30;;;;;;;;;;10270023;28;20518;-76
2023/09/21 02:43:22;;;;;;;6.57;3.40;;;;;;;;;;10274401;28;20440;-77
2023/09/21 02:48:25;;;;;;;6.07;3.47;;;;;;;;;;10275962;28;20464;-77
2023/09/21 02:53:28;;;;;;;5.73;3.43;;;;;;;;;;10268996;28;21075;-79
2023/09/21 02:58:32;;;;;;;5.40;3.58;;;;;;;;;;10274865;28;20460;-77
2023/09/21 03:03:34;;;;;;;6.55;3.55;;;;;;;;;;10276706;28;20438;-76
2023/09/21 03:08:38;;;;;;;5.43;3.30;;;;;;;;;;10277510;28;20974;-76
2023/09/21 03:13:44;;;;;;;6.30;4.00;;;;;;;;;;10267215;28;20873;-76
2023/09/21 03:18:47;;;;;;;8.18;3.72;;;;;;;;;;10271361;28;20534;-76
2023/09/21 03:23:52;;;;;;;8.43;4.05;;;;;;;;;;10274523;28;20466;-77
2023/09/21 03:28:56;;;;;;;7.28;3.67;;;;;;;;;;10277781;28;20484;-76
2023/09/21 03:34:02;;;;;;;7.73;4.10;;;;;;;;;;10269500;28;20477;-76
2023/09/21 03:39:09;;;;;;;6.38;3.72;;;;;;;;;;10273860;28;20608;-77
2023/09/21 03:44:13;;;;;;;5.85;3.70;;;;;;;;;;10270266;28;20857;-75
2023/09/21 03:49:17;;;;;;;7.20;3.90;;;;;;;;;;10272347;28;20526;-75
2023/09/21 03:54:20;;;;;;;5.83;3.53;;;;;;;;;;10268741;28;20707;-76
2023/09/21 03:59:24;;;;;;;8.00;3.90;;;;;;;;;;10272400;28;20443;-76
2023/09/21 04:04:27;;;;;;;6.30;3.75;;;;;;;;;;10271688;28;20524;-75
2023/09/21 04:09:30;;;;;;;5.80;3.55;;;;;;;;;;10273881;28;20538;-76
2023/09/21 04:14:34;;;;;;;9.50;4.10;;;;;;;;;;10269594;28;20866;-75
2023/09/21 04:19:37;;;;;;;6.97;3.83;;;;;;;;;;10267854;28;20451;-76
2023/09/21 04:24:40;;;;;;;7.10;4.00;;;;;;;;;;10275646;28;20454;-74
2023/09/21 04:29:45;;;;;;;7.47;4.18;;;;;;;;;;10265044;28;20655;-74
2023/09/21 04:34:47;;;;;;;7.72;4.30;;;;;;;;;;10270953;28;20846;-75
2023/09/21 04:39:50;;;;;;;7.80;4.07;;;;;;;;;;10276884;28;20432;-77
2023/09/21 04:44:55;;;;;;;10.48;4.20;;;;;;;;;;10270587;28;20504;-75
2023/09/21 04:49:57;;;;;;;7.95;4.05;;;;;;;;;;10272087;28;20436;-74
2023/09/21 04:55:04;;;;;;;6.77;3.70;;;;;;;;;;10268072;28;20456;-75
2023/09/21 05:00:14;;;;;;;8.00;4.28;;;;;;;;;;10273958;28;21103;-75
2023/09/21 05:05:20;;;;;;;7.22;3.83;;;;;;;;;;10273211;28;20860;-75
2023/09/21 05:10:23;;;;;;;6.07;3.43;;;;;;;;;;10269865;28;21025;-76
2023/09/21 05:15:27;;;;;;;6.53;3.28;;;;;;;;;;10265366;28;20449;-75
2023/09/21 05:20:30;;;;;;;5.97;3.33;;;;;;;;;;10266164;28;20514;-75
2023/09/21 05:25:32;;;;;;;6.43;3.03;;;;;;;;;;10270117;28;20474;-75
2023/09/21 05:30:36;;;;;;;6.47;3.08;;;;;;;;;;10267830;28;21057;-75
2023/09/21 05:35:39;;;;;;;6.85;2.90;;;;;;;;;;10269485;28;20468;-76
2023/09/21 05:40:41;;;;;;;5.93;3.40;;;;;;;;;;10260298;28;21202;-75
2023/09/21 05:45:45;;;;;;;7.82;3.17;;;;;;;;;;10266496;28;20485;-75
2023/09/21 05:50:49;;;;;;;7.78;3.42;;;;;;;;;;10268824;28;20964;-76
2023/09/21 05:55:53;;;;;;;10.85;3.90;;;;;;;;;;10273653;28;20439;-77
2023/09/21 06:00:59;;;;;;;7.18;3.60;;;;;;;;;;10275993;28;20471;-77
2023/09/21 06:06:06;;;;;;;6.85;3.40;;;;;;;;;;10277427;28;20428;-76
2023/09/21 06:11:09;;;;;;;8.20;3.30;;;;;;;;;;10277853;28;20775;-76
2023/09/21 06:16:13;;;;;;;8.00;3.65;;;;;;;;;;10277963;28;20519;-76
2023/09/21 06:21:15;;;;;;;6.00;3.13;;;;;;;;;;10275501;28;20900;-76
2023/09/21 06:26:18;;;;;;;7.23;3.47;;;;;;;;;;10278650;28;20472;-75
2023/09/21 06:31:22;;;;;;;8.70;3.28;;;;;;;;;;10274235;28;20444;-75
2023/09/21 06:36:28;;;;;;;7.32;2.97;;;;;;;;;;10274971;28;20442;-75
2023/09/21 06:41:32;;;;;;;11.73;4.18;;;;;;;;;;10273507;28;20942;-76
2023/09/21 06:46:37;;;;;;;8.27;3.40;;;;;;;;;;10274766;28;20428;-76
2023/09/21 06:51:39;;;;;;;10.13;3.33;;;;;;;;;;10271429;28;20443;-75
2023/09/21 06:56:42;;;;;;;8.55;4.20;;;;;;;;;;10271506;28;20594;-75
2023/09/21 07:01:47;;;;;;;7.30;3.87;;;;;;;;;;10271672;28;21507;-76
2023/09/21 07:06:50;;;;;;;10.37;3.60;;;;;;;;;;10275109;28;20476;-76
2023/09/21 07:11:53;;;;;;;13.98;3.75;;;;;;;;;;10274614;28;20440;-75
2023/09/21 07:16:57;;;;;;;12.13;4.03;;;;;;;;;;10265639;28;20442;-76
2023/09/21 07:22:00;;;;;;;8.93;3.30;;;;;;;;;;10271694;28;20431;-75
2023/09/21 07:27:03;;;;;;;8.05;3.60;;;;;;;;;;10273444;28;20573;-75
2023/09/21 07:32:08;;;;;;;9.48;3.80;;;;;;;;;;10266500;28;20423;-75
2023/09/21 07:37:12;;;;;;;6.50;3.30;;;;;;;;;;10267931;28;20437;-75
2023/09/21 07:42:16;;;;;;;6.97;3.60;;;;;;;;;;10254264;28;20518;-75
2023/09/21 07:47:21;;;;;;;6.80;3.28;;;;;;;;;;10264803;28;20471;-75
2023/09/21 07:52:24;;;;;;;8.13;3.30;;;;;;;;;;10272747;28;20841;-76
2023/09/21 07:57:27;;;;;;;9.13;3.53;;;;;;;;;;10262761;28;20864;-76
2023/09/21 08:02:30;;;;;;;6.05;3.47;;;;;;;;;;10265350;28;20902;-76
2023/09/21 08:07:34;;;;;;;6.97;3.30;;;;;;;;;;10272134;28;20451;-76
2023/09/21 08:12:38;;;;;;;6.45;3.30;;;;;;;;;;10269679;28;20598;-77
2023/09/21 08:17:42;;;;;;;5.28;3.10;;;;;;;;;;10273425;28;20519;-76
2023/09/21 08:22:47;;;;;;;5.97;2.92;;;;;;;;;;10268375;28;20888;-76
2023/09/21 08:27:50;;;;;;;4.95;2.97;;;;;;;;;;10271025;28;20420;-76
2023/09/21 08:32:55;;;;;;;4.45;2.47;;;;;;;;;;10260855;28;20536;-77
2023/09/21 08:37:59;;;;;;;4.57;2.40;;;;;;;;;;10263551;28;20442;-77
2023/09/21 08:43:03;;;;;;;3.78;2.40;;;;;;;;;;10266963;28;20443;-77
2023/09/21 08:48:10;;;;;;;4.10;2.30;;;;;;;;;;10268131;28;20456;-77
2023/09/21 08:53:19;;;;;;;2.78;2.08;;;;;;;;;;10271595;28;20436;-77
2023/09/21 08:58:23;;;;;;;3.30;2.20;;;;;;;;;;10270007;28;20955;-77
2023/09/21 09:03:27;;;;;;;5.10;2.40;;;;;;;;;;10266417;28;20959;-78
2023/09/21 09:08:30;;;;;;;4.35;2.45;;;;;;;;;;10274901;28;20462;-77
2023/09/21 09:13:33;;;;;;;3.88;2.15;;;;;;;;;;10260331;28;20441;-78
2023/09/21 09:18:37;;;;;;;3.45;2.30;;;;;;;;;;10267416;28;20436;-78
2023/09/21 09:23:41;;;;;;;4.55;2.60;;;;;;;;;;10269518;28;20431;-77
2023/09/21 09:28:43;;;;;;;4.40;2.40;;;;;;;;;;10265324;28;20556;-77
2023/09/21 09:33:48;;;;;;;3.67;2.30;;;;;;;;;;10269676;28;20445;-77
2023/09/21 09:38:52;;;;;;;3.27;2.50;;;;;;;;;;10247892;28;20498;-77
2023/09/21 09:43:58;;;;;;;5.07;2.40;;;;;;;;;;10265098;28;20528;-77
2023/09/21 09:49:03;;;;;;;3.95;2.67;;;;;;;;;;10265261;28;20619;-77
2023/09/21 09:54:08;;;;;;;4.13;2.70;;;;;;;;;;10266674;28;20825;-78
2023/09/21 09:59:12;;;;;;;5.13;2.70;;;;;;;;;;10267573;28;21101;-77
2023/09/21 10:04:18;;;;;;;5.10;2.42;;;;;;;;;;10266330;28;20435;-77
2023/09/21 10:09:21;;;;;;;2.75;2.20;;;;;;;;;;10268213;28;20450;-78
2023/09/21 10:14:24;;;;;;;3.57;2.27;;;;;;;;;;10268607;28;20805;-77
2023/09/21 10:19:29;;;;;;;4.03;2.60;;;;;;;;;;10259959;28;21060;-77
2023/09/21 10:24:32;;;;;;;4.55;2.50;;;;;;;;;;10268924;28;20913;-77
2023/09/21 10:29:37;;;;;;;4.53;2.53;;;;;;;;;;10269783;28;20924;-77
2023/09/21 10:34:48;;;;;;;3.97;2.95;;;;;;;;;;10263239;28;20672;-77
2023/09/21 10:39:57;;;;;;;3.70;2.40;;;;;;;;;;10267219;28;20808;-76
2023/09/21 10:45:07;;;;;;;5.68;2.65;;;;;;;;;;10268947;28;20841;-77
2023/09/21 10:50:13;;;;;;;3.30;2.33;;;;;;;;;;10274658;28;20444;-77
2023/09/21 10:55:17;;;;;;;2.90;2.53;;;;;;;;;;10267075;28;20535;-77
2023/09/21 11:00:21;;;;;;;2.85;2.30;;;;;;;;;;10272722;28;20438;-77
2023/09/21 11:05:26;;;;;;;3.93;2.40;;;;;;;;;;10269584;28;20464;-78
2023/09/21 11:10:31;;;;;;;3.05;2.50;;;;;;;;;;10272652;28;20528;-78
2023/09/21 11:15:34;;;;;;;4.55;2.50;;;;;;;;;;10275792;28;20587;-76
2023/09/21 11:20:39;;;;;;;3.13;2.50;;;;;;;;;;10262126;28;20459;-77
2023/09/21 11:25:42;;;;;;;3.38;2.50;;;;;;;;;;10259790;28;20441;-77
2023/09/21 11:30:45;;;;;;;2.55;2.35;;;;;;;;;;10266925;28;20442;-78
2023/09/21 11:35:51;;;;;;;3.13;2.20;;;;;;;;;;10266070;28;20443;-77
2023/09/21 11:40:54;;;;;;;3.42;2.17;;;;;;;;;;10270387;28;20870;-77
2023/09/21 11:45:57;;;;;;;3.78;2.42;;;;;;;;;;10265936;28;20428;-77
2023/09/21 11:51:04;;;;;;;3.10;2.20;;;;;;;;;;10275948;28;20826;-78
2023/09/21 11:56:12;;;;;;;2.60;2.03;;;;;;;;;;10279045;28;20469;-77
2023/09/21 12:01:19;;;;;;;3.28;2.08;;;;;;;;;;10263987;28;20488;-77
2023/09/21 12:06:27;;;;;;;2.40;2.20;;;;;;;;;;10260994;28;21039;-78
2023/09/21 12:11:30;;;;;;;2.88;2.28;;;;;;;;;;10266301;28;20496;-77
2023/09/21 12:16:33;;;;;;;2.90;2.22;;;;;;;;;;10260033;28;20480;-78
2023/09/21 12:21:38;;;;;;;2.60;1.95;;;;;;;;;;10259351;28;20591;-78
2023/09/21 12:26:41;;;;;;;2.08;1.98;;;;;;;;;;10257091;28;20734;-77
2023/09/21 12:31:44;;;;;;;1.97;1.73;;;;;;;;;;10258440;28;20836;-78
2023/09/21 12:37:02;;;;;;;2.17;1.90;;;;;;;;;;10257778;28;20471;-77
2023/09/21 12:42:05;;;;;;;1.95;1.67;;;;;;;;;;10261089;28;20605;-78
2023/09/21 12:47:09;;;;;;;2.22;1.70;;;;;;;;;;10239568;28;20497;-78
2023/09/21 12:52:14;;;;;;;2.17;1.80;;;;;;;;;;10255757;28;20436;-77
2023/09/21 12:57:19;;;;;;;1.92;1.75;;;;;;;;;;10244190;28;20447;-77
2023/09/21 13:02:25;;;;;;;1.88;1.45;;;;;;;;;;10256965;28;20916;-76
2023/09/21 13:07:30;;;;;;;2.73;1.60;;;;;;;;;;10257408;28;20456;-75
2023/09/21 13:12:33;;;;;;;3.58;1.90;;;;;;;;;;10256168;28;20579;-76
2023/09/21 13:17:36;;;;;;;2.80;1.90;;;;;;;;;;10258888;28;20445;-77
2023/09/21 13:22:40;;;;;;;3.53;2.00;;;;;;;;;;10256162;28;20991;-78
2023/09/21 13:27:47;;;;;;;2.63;1.73;;;;;;;;;;10261592;28;20430;-78
2023/09/21 13:32:50;;;;;;;2.37;1.60;;;;;;;;;;10266074;28;20440;-76
2023/09/21 13:37:54;;;;;;;2.78;1.77;;;;;;;;;;10269652;28;20806;-76
2023/09/21 13:42:58;;;;;;;1.97;1.60;;;;;;;;;;10270009;28;20814;-76
2023/09/21 13:48:00;;;;;;;3.27;1.50;;;;;;;;;;10268959;28;20554;-77
2023/09/21 13:53:04;;;;;;;2.55;1.60;;;;;;;;;;10270808;28;20913;-77
2023/09/21 13:58:07;;;;;;;3.33;1.75;;;;;;;;;;10266279;28;20432;-77
2023/09/21 14:03:11;;;;;;;3.75;1.70;;;;;;;;;;10262980;28;20564;-77
2023/09/21 14:08:22;;;;;;;2.58;1.48;;;;;;;;;;10265325;28;20424;-76
2023/09/21 14:13:25;;;;;;;2.80;1.48;;;;;;;;;;10263949;28;20821;-76
2023/09/21 14:18:28;;;;;;;5.65;1.50;;;;;;;;;;10268950;28;20459;-77
2023/09/21 14:23:32;;;;;;;2.70;1.30;;;;;;;;;;10275998;28;20463;-75
2023/09/21 14:28:36;;;;;;;3.90;1.50;;;;;;;;;;10271649;28;20522;-75
2023/09/21 14:33:39;;;;;;;4.45;1.60;;;;;;;;;;10270807;28;20471;-76
2023/09/21 14:38:43;;;;;;;3.00;1.40;;;;;;;;;;10268723;28;20471;-76
2023/09/21 14:43:47;;;;;;;2.90;1.53;;;;;;;;;;10257347;28;20439;-76
2023/09/21 14:48:50;;;;;;;3.60;1.42;;;;;;;;;;10271837;28;20478;-77
2023/09/21 14:53:55;;;;;;;3.23;1.70;;;;;;;;;;10277829;28;21007;-77
2023/09/21 14:58:58;;;;;;;4.05;1.40;;;;;;;;;;10276161;28;20435;-77
2023/09/21 15:04:01;;;;;;;2.70;1.50;;;;;;;;;;10272176;28;20493;-76
2023/09/21 15:09:06;;;;;;;4.30;1.30;;;;;;;;;;10275821;28;20526;-77
2023/09/21 15:14:09;;;;;;;3.63;1.40;;;;;;;;;;10273775;28;20500;-76
2023/09/21 15:19:11;;;;;;;3.10;1.50;;;;;;;;;;10271723;28;20477;-76
2023/09/21 15:24:16;;;;;;;2.53;1.30;;;;;;;;;;10270510;28;20482;-76
2023/09/21 15:29:18;;;;;;;2.80;1.40;;;;;;;;;;10272131;28;20849;-76
2023/09/21 15:34:22;;;;;;;2.78;1.20;;;;;;;;;;10266815;28;20427;-75
2023/09/21 15:39:27;;;;;;;2.00;1.35;;;;;;;;;;10257362;28;20440;-79
2023/09/21 15:44:30;;;;;;;2.90;1.27;;;;;;;;;;10272762;28;20922;-80
2023/09/21 15:49:32;;;;;;;3.05;1.25;;;;;;;;;;10270356;28;20505;-80
2023/09/21 15:54:36;;;;;;;2.97;1.30;;;;;;;;;;10273409;28;21741;-80
2023/09/21 15:59:39;;;;;;;2.90;1.30;;;;;;;;;;10275686;28;20947;-79
2023/09/21 16:04:42;;;;;;;4.38;1.45;;;;;;;;;;10269648;28;20440;-80
2023/09/21 16:09:46;;;;;;;1.50;1.10;;;;;;;;;;10272344;28;20428;-79
2023/09/21 16:14:49;;;;;;;2.20;1.30;;;;;;;;;;10274905;28;20439;-79
2023/09/21 16:19:52;;;;;;;2.15;1.20;;;;;;;;;;10265604;28;20482;-80
2023/09/21 16:24:56;;;;;;;1.90;1.20;;;;;;;;;;10267565;28;20428;-81
2023/09/21 16:29:59;;;;;;;3.65;1.45;;;;;;;;;;10274727;28;20526;-79
2023/09/21 16:35:02;;;;;;;2.92;1.38;;;;;;;;;;10272693;28;20432;-81
2023/09/21 16:40:07;;;;;;;3.65;1.30;;;;;;;;;;10267755;28;20829;-80
2023/09/21 16:45:10;;;;;;;5.55;1.40;;;;;;;;;;10270781;28;20980;-80
2023/09/21 16:50:13;;;;;;;3.97;1.40;;;;;;;;;;10250062;28;20460;-80
2023/09/21 16:55:17;;;;;;;2.57;1.30;;;;;;;;;;10272736;28;20523;-79
2023/09/21 17:00:20;;;;;;;4.65;1.50;;;;;;;;;;10257513;28;20440;-79
2023/09/21 17:05:23;;;;;;;7.93;1.67;;;;;;;;;;10270949;28;20499;-79
2023/09/21 17:10:27;;;;;;;5.22;1.73;;;;;;;;;;10275242;28;20445;-79
2023/09/21 17:15:30;;;;;;;8.17;1.90;;;;;;;;;;10271480;28;20626;-79
2023/09/21 17:20:34;;;;;;;4.03;1.80;;;;;;;;;;10272848;28;20443;-80
2023/09/21 17:25:39;;;;;;;5.20;1.97;;;;;;;;;;10271552;28;20428;-79
2023/09/21 17:30:42;;;;;;;4.60;1.90;;;;;;;;;;10266336;28;20455;-80
2023/09/21 17:35:44;;;;;;;3.90;2.08;;;;;;;;;;10271298;28;20439;-79
2023/09/21 17:40:49;;;;;;;4.00;2.10;;;;;;;;;;10270198;28;20525;-79
2023/09/21 17:45:51;;;;;;;4.03;2.28;;;;;;;;;;10273225;28;20522;-79
2023/09/21 17:50:55;;;;;;;4.07;2.37;;;;;;;;;;10267888;28;20431;-78
2023/09/21 17:56:10;;;;;;;6.70;2.30;;;;;;;;;;10262011;28;20610;-80
2023/09/21 18:01:13;;;;;;;6.35;2.45;;;;;;;;;;10281698;28;20432;-79
2023/09/21 18:06:16;;;;;;;5.63;2.40;;;;;;;;;;10262613;28;20433;-80
2023/09/21 18:11:20;;;;;;;4.28;2.33;;;;;;;;;;10278544;28;20912;-80
2023/09/21 18:16:23;;;;;;;5.30;2.50;;;;;;;;;;10279666;28;20442;-80
2023/09/21 18:21:26;;;;;;;6.30;2.88;;;;;;;;;;10276186;28;20439;-80
2023/09/21 18:26:30;;;;;;;8.63;3.45;;;;;;;;;;10282337;28;20908;-81
2023/09/21 18:31:33;;;;;;;7.65;3.80;;;;;;;;;;10279890;28;20518;-81
2023/09/21 18:36:36;;;;;;;7.70;3.60;;;;;;;;;;10274407;28;20788;-78
2023/09/21 18:41:40;;;;;;;8.15;3.40;;;;;;;;;;10278034;28;20948;-80
2023/09/21 18:46:43;;;;;;;6.30;2.60;;;;;;;;;;10273867;28;20504;-79
2023/09/21 18:51:46;;;;;;;5.35;2.97;;;;;;;;;;10275783;28;20466;-79
2023/09/21 18:56:51;;;;;;;6.38;2.95;;;;;;;;;;10271177;28;20440;-80
2023/09/21 19:02:06;;;;;;;6.65;2.75;;;;;;;;;;10271432;28;20424;-79
2023/09/21 19:07:09;;;;;;;6.65;2.80;;;;;;;;;;10275241;28;20448;-78
2023/09/21 19:12:13;;;;;;;6.67;3.00;;;;;;;;;;10278621;28;20450;-79
2023/09/21 19:17:16;;;;;;;6.00;3.10;;;;;;;;;;10276023;28;20439;-79
2023/09/21 19:22:19;;;;;;;6.40;3.10;;;;;;;;;;10279028;28;20440;-79
2023/09/21 19:27:23;;;;;;;7.47;3.10;;;;;;;;;;10274599;28;20443;-79
2023/09/21 19:32:27;;;;;;;6.53;3.50;;;;;;;;;;10272144;28;20454;-80
2023/09/21 19:37:29;;;;;;;6.10;3.03;;;;;;;;;;10271680;28;20477;-81
2023/09/21 19:42:37;;;;;;;8.25;2.90;;;;;;;;;;10275417;28;20842;-80
2023/09/21 19:47:43;;;;;;;5.57;2.25;;;;;;;;;;10268043;28;20435;-79
2023/09/21 19:52:46;;;;;;;5.75;2.30;;;;;;;;;;10274016;28;20446;-78
2023/09/21 19:57:51;;;;;;;5.37;2.23;;;;;;;;;;10275935;28;20466;-80
2023/09/21 20:02:55;;;;;;;3.53;1.80;;;;;;;;;;10272433;28;20432;-79
2023/09/21 20:07:57;;;;;;;3.05;1.60;;;;;;;;;;10273906;28;20436;-78
2023/09/21 20:13:03;;;;;;;3.03;1.70;;;;;;;;;;10274085;28;20436;-79
2023/09/21 20:18:07;;;;;;;4.63;1.70;;;;;;;;;;10273160;28;20438;-78
2023/09/21 20:23:09;;;;;;;3.83;1.50;;;;;;;;;;10252774;28;20508;-79
2023/09/21 20:28:13;;;;;;;3.20;1.20;;;;;;;;;;10272260;28;20439;-78
2023/09/21 20:33:16;;;;;;;4.87;1.67;;;;;;;;;;10275370;28;20434;-77
2023/09/21 20:38:19;;;;;;;3.30;1.50;;;;;;;;;;10263069;28;20972;-78
2023/09/21 20:43:23;;;;;;;3.88;1.60;;;;;;;;;;10270359;28;20439;-78
2023/09/21 20:48:25;;;;;;;3.67;1.50;;;;;;;;;;10271325;28;20924;-77
2023/09/21 20:53:28;;;;;;;3.00;1.60;;;;;;;;;;10268675;28;20432;-79
2023/09/21 20:58:32;;;;;;;3.00;1.53;;;;;;;;;;10261548;28;20432;-77
2023/09/21 21:03:35;;;;;;;5.85;1.60;;;;;;;;;;10266526;28;20924;-77
2023/09/21 21:08:38;;;;;;;5.47;1.80;;;;;;;;;;10269049;28;20604;-76
2023/09/21 21:13:43;;;;;;;3.20;1.40;;;;;;;;;;10268690;28;20526;-77
2023/09/21 21:18:46;;;;;;;3.90;1.27;;;;;;;;;;10269775;28;20636;-76
2023/09/21 21:23:48;;;;;;;2.15;0.90;;;;;;;;;;10276550;28;20438;-75
2023/09/21 21:28:52;;;;;;;1.70;0.90;;;;;;;;;;10271398;28;20921;-75
2023/09/21 21:33:55;;;;;;;2.70;1.20;;;;;;;;;;10268493;28;20534;-79
2023/09/21 21:38:58;;;;;;;4.40;1.30;;;;;;;;;;10271818;28;20422;-78
2023/09/21 21:44:03;;;;;;;2.87;1.10;;;;;;;;;;10267134;28;20538;-76
2023/09/21 21:49:06;;;;;;;4.60;1.50;;;;;;;;;;10266525;28;20447;-76
2023/09/21 21:54:08;;;;;;;2.20;1.20;;;;;;;;;;10268330;28;20527;-77
2023/09/21 21:59:13;;;;;;;2.55;1.50;;;;;;;;;;10271157;28;20447;-77
2023/09/21 22:04:16;;;;;;;5.68;1.50;;;;;;;;;;10262724;28;20439;-77
2023/09/21 22:09:21;;;;;;;4.07;1.50;;;;;;;;;;10267523;28;20527;-75
2023/09/21 22:14:25;;;;;;;3.22;1.50;;;;;;;;;;10273053;28;20588;-77
2023/09/21 22:19:27;;;;;;;3.50;1.67;;;;;;;;;;10266982;28;20953;-77
2023/09/21 22:24:30;;;;;;;3.67;2.00;;;;;;;;;;10271317;28;20458;-77
2023/09/21 22:29:34;;;;;;;4.35;1.88;;;;;;;;;;10270955;28;20438;-76
2023/09/21 22:34:38;;;;;;;5.20;1.63;;;;;;;;;;10269130;28;20444;-76
2023/09/21 22:39:40;;;;;;;3.87;2.00;;;;;;;;;;10268940;28;21086;-76
2023/09/21 22:44:44;;;;;;;4.63;1.92;;;;;;;;;;10274462;28;20448;-77
2023/09/21 22:49:48;;;;;;;4.45;2.05;;;;;;;;;;10275153;28;20443;-77
2023/09/21 22:54:51;;;;;;;4.55;1.90;;;;;;;;;;10276260;28;20542;-76
2023/09/21 22:59:55;;;;;;;5.38;1.73;;;;;;;;;;10279048;28;20451;-77
2023/09/21 23:04:58;;;;;;;4.03;1.70;;;;;;;;;;10259207;28;20428;-77
2023/09/21 23:10:02;;;;;;;5.18;1.92;;;;;;;;;;10274174;28;20519;-76
2023/09/21 23:15:08;;;;;;;2.93;1.43;;;;;;;;;;10271690;28;20434;-78
2023/09/21 23:20:19;;;;;;;4.80;1.40;;;;;;;;;;10267859;28;20530;-76
2023/09/21 23:25:22;;;;;;;2.35;1.30;;;;;;;;;;10275312;28;20440;-77
2023/09/21 23:30:28;;;;;;;4.03;1.50;;;;;;;;;;10276334;28;20553;-77
2023/09/21 23:35:32;;;;;;;7.20;1.40;;;;;;;;;;10272232;28;20439;-77
2023/09/21 23:40:35;;;;;;;1.98;1.20;;;;;;;;;;10274765;28;20437;-78
2023/09/21 23:45:38;;;;;;;2.85;1.20;;;;;;;;;;10275558;28;20463;-76
2023/09/21 23:50:41;;;;;;;2.93;1.00;;;;;;;;;;10272485;28;20446;-75
2023/09/21 23:55:45;;;;;;;1.35;1.00;;;;;;;;;;10270792;28;20518;-78
